createdAt,value
2023-05-27T00:02:00.599Z,102452.31
2023-05-27T00:04:27.487Z,102448.09
2023-05-27T00:06:54.519Z,102455.03
2023-05-27T00:09:21.672Z,102460.25
2023-05-27T00:11:48.538Z,102461.09
2023-05-27T00:14:15.614Z,102459.94
2023-05-27T00:16:42.447Z,102446.38
2023-05-27T00:19:09.242Z,102464.88
2023-05-27T00:21:36.498Z,102448.16
2023-05-27T00:24:03.244Z,102457.22
2023-05-27T00:26:30.107Z,102445.63
2023-05-27T00:28:56.854Z,102458.34
2023-05-27T00:31:24.327Z,102458.25
2023-05-27T00:33:51.353Z,102452.56
2023-05-27T00:36:18.380Z,102463.00
2023-05-27T00:38:45.159Z,102455.69
2023-05-27T00:41:13.132Z,102467.19
2023-05-27T00:43:39.983Z,102454.56
2023-05-27T00:46:06.846Z,102445.50
2023-05-27T00:48:33.709Z,102454.94
2023-05-27T00:51:00.619Z,102459.97
2023-05-27T00:53:27.737Z,102456.44
2023-05-27T00:55:55.154Z,102475.16
2023-05-27T00:58:22.547Z,102450.91
2023-05-27T01:00:49.679Z,102458.72
2023-05-27T01:03:16.563Z,102434.66
2023-05-27T01:05:43.431Z,102470.88
2023-05-27T01:08:36.450Z,102467.34
2023-05-27T01:11:03.512Z,102460.19
2023-05-27T01:13:41.464Z,102463.38
2023-05-27T01:16:13.552Z,102464.63
2023-05-27T01:18:45.614Z,102466.25
2023-05-27T01:21:18.667Z,102473.31
2023-05-27T01:23:48.148Z,102472.13
2023-05-27T01:26:14.871Z,102452.28
2023-05-27T01:28:42.020Z,102468.28
2023-05-27T01:31:20.112Z,102480.72
2023-05-27T01:33:59.858Z,102486.28
2023-05-27T01:36:27.782Z,102470.72
2023-05-27T01:38:54.529Z,102478.56
2023-05-27T01:41:22.416Z,102494.19
2023-05-27T01:43:49.160Z,102479.72
2023-05-27T01:46:16.383Z,102492.66
2023-05-27T01:48:43.231Z,102493.84
2023-05-27T01:51:10.008Z,102481.13
2023-05-27T01:53:36.774Z,102497.03
2023-05-27T01:56:03.568Z,102495.63
2023-05-27T01:58:30.628Z,102484.72
2023-05-27T02:00:57.418Z,102497.09
2023-05-27T02:03:24.313Z,102494.84
2023-05-27T02:05:51.155Z,102495.91
2023-05-27T02:08:17.896Z,102485.13
2023-05-27T02:10:44.635Z,102501.53
2023-05-27T02:13:11.657Z,102493.28
2023-05-27T02:15:38.414Z,102504.13
2023-05-27T02:18:06.281Z,102495.72
2023-05-27T02:20:33.262Z,102501.94
2023-05-27T02:23:01.687Z,102493.41
2023-05-27T02:25:28.443Z,102486.00
2023-05-27T02:27:55.179Z,102504.00
2023-05-27T02:30:21.964Z,102525.38
2023-05-27T02:32:48.796Z,102520.28
2023-05-27T02:35:16.365Z,102485.72
2023-05-27T02:37:43.153Z,102523.38
2023-05-27T02:40:10.483Z,102531.91
2023-05-27T02:42:37.340Z,102512.09
2023-05-27T02:45:04.837Z,102497.84
2023-05-27T02:47:31.670Z,102529.66
2023-05-27T02:49:58.456Z,102513.31
2023-05-27T02:52:25.328Z,102524.38
2023-05-27T02:54:52.251Z,102532.47
2023-05-27T02:57:20.047Z,102519.25
2023-05-27T02:59:46.835Z,102514.31
2023-05-27T03:02:13.761Z,102527.28
2023-05-27T03:04:40.779Z,102530.56
2023-05-27T03:07:07.545Z,102542.34
2023-05-27T03:09:34.292Z,102514.19
2023-05-27T03:12:01.081Z,102529.75
2023-05-27T03:14:27.858Z,102521.94
2023-05-27T03:16:54.920Z,102510.38
2023-05-27T03:19:22.090Z,102535.31
2023-05-27T03:21:50.147Z,102518.13
2023-05-27T03:24:18.352Z,102531.84
2023-05-27T03:26:45.582Z,102532.63
2023-05-27T03:29:12.456Z,102518.03
2023-05-27T03:31:39.367Z,102541.75
2023-05-27T03:34:06.219Z,102521.34
2023-05-27T03:36:32.950Z,102535.22
2023-05-27T03:38:59.763Z,102544.72
2023-05-27T03:41:26.811Z,102543.09
2023-05-27T03:43:53.548Z,102545.25
2023-05-27T03:46:20.381Z,102531.19
2023-05-27T03:48:47.248Z,102525.56
2023-05-27T03:51:14.036Z,102526.56
2023-05-27T03:53:41.082Z,102520.41
2023-05-27T03:56:07.925Z,102511.44
2023-05-27T03:58:34.801Z,102519.19
2023-05-27T04:01:01.532Z,102536.22
2023-05-27T04:03:28.455Z,102519.53
2023-05-27T04:05:58.367Z,102538.03
2023-05-27T04:08:27.239Z,102522.25
2023-05-27T04:10:54.870Z,102534.94
2023-05-27T04:13:21.820Z,102529.25
2023-05-27T04:15:49.879Z,102533.63
2023-05-27T04:18:18.244Z,102538.13
2023-05-27T04:20:48.368Z,102535.69
2023-05-27T04:23:15.553Z,102539.63
2023-05-27T04:25:42.413Z,102515.53
2023-05-27T04:28:10.074Z,102525.28
2023-05-27T04:30:37.221Z,102538.97
2023-05-27T04:33:04.191Z,102532.59
2023-05-27T04:35:33.699Z,102546.50
2023-05-27T04:38:02.225Z,102539.88
2023-05-27T04:40:30.260Z,102544.38
2023-05-27T04:42:57.351Z,102548.81
2023-05-27T04:45:24.851Z,102537.56
2023-05-27T04:47:51.822Z,102516.28
2023-05-27T04:50:18.780Z,102537.13
2023-05-27T04:52:46.016Z,102539.53
2023-05-27T04:55:12.834Z,102536.13
2023-05-27T04:57:42.591Z,102538.81
2023-05-27T05:00:09.974Z,102521.50
2023-05-27T05:02:36.847Z,102547.88
2023-05-27T05:05:04.193Z,102548.13
2023-05-27T05:07:31.496Z,102548.81
2023-05-27T05:09:58.410Z,102547.72
2023-05-27T05:12:26.900Z,102551.78
2023-05-27T05:14:53.835Z,102552.97
2023-05-27T05:17:25.074Z,102556.16
2023-05-27T05:19:52.690Z,102551.31
2023-05-27T05:22:24.105Z,102522.34
2023-05-27T05:24:51.088Z,102545.91
2023-05-27T05:27:18.000Z,102551.69
2023-05-27T05:29:45.273Z,102559.44
2023-05-27T05:32:13.017Z,102539.66
2023-05-27T05:34:40.323Z,102546.28
2023-05-27T05:37:07.504Z,102552.50
2023-05-27T05:39:34.474Z,102544.59
2023-05-27T05:42:01.331Z,102553.41
2023-05-27T05:44:28.131Z,102554.53
2023-05-27T05:46:54.969Z,102561.66
2023-05-27T05:49:21.792Z,102553.66
2023-05-27T05:51:48.858Z,102551.34
2023-05-27T05:54:15.889Z,102553.22
2023-05-27T05:56:42.820Z,102555.13
2023-05-27T05:59:09.674Z,102569.56
2023-05-27T06:01:36.534Z,102564.09
2023-05-27T06:04:05.878Z,102563.31
2023-05-27T06:06:32.843Z,102571.97
2023-05-27T06:08:59.631Z,102557.44
2023-05-27T06:11:27.568Z,102543.59
2023-05-27T06:13:54.525Z,102565.31
2023-05-27T06:16:21.369Z,102555.28
2023-05-27T06:18:48.177Z,102559.03
2023-05-27T06:21:15.084Z,102561.50
2023-05-27T06:23:41.846Z,102574.94
2023-05-27T06:26:08.628Z,102566.63
2023-05-27T06:28:35.445Z,102566.69
2023-05-27T06:31:02.354Z,102580.09
2023-05-27T06:33:29.210Z,102580.19
2023-05-27T06:35:56.044Z,102592.44
2023-05-27T06:38:24.355Z,102586.19
2023-05-27T06:40:51.435Z,102590.16
2023-05-27T06:43:18.482Z,102589.50
2023-05-27T06:45:55.883Z,102595.94
2023-05-27T06:48:29.719Z,102586.28
2023-05-27T06:50:56.643Z,102602.66
2023-05-27T06:53:23.551Z,102617.50
2023-05-27T06:55:50.595Z,102586.44
2023-05-27T06:58:17.457Z,102614.59
2023-05-27T07:00:44.316Z,102604.66
2023-05-27T07:03:11.212Z,102612.59
2023-05-27T07:05:38.067Z,102616.09
2023-05-27T07:08:05.300Z,102588.34
2023-05-27T07:10:50.740Z,102615.00
2023-05-27T07:13:17.753Z,102605.31
2023-05-27T07:15:44.719Z,102604.41
2023-05-27T07:18:11.722Z,102610.56
2023-05-27T07:20:39.835Z,102597.41
2023-05-27T07:23:06.818Z,102608.25
2023-05-27T07:25:33.636Z,102610.25
2023-05-27T07:28:00.566Z,102568.16
2023-05-27T07:30:27.385Z,102596.72
2023-05-27T07:32:54.839Z,102597.75
2023-05-27T07:35:21.732Z,102595.19
2023-05-27T07:37:48.533Z,102603.81
2023-05-27T07:40:15.409Z,102605.13
2023-05-27T07:42:42.280Z,102575.03
2023-05-27T07:45:09.734Z,102593.28
2023-05-27T07:47:36.540Z,102592.78
2023-05-27T07:50:04.536Z,102585.75
2023-05-27T07:52:31.411Z,102608.25
2023-05-27T07:54:58.848Z,102593.75
2023-05-27T07:57:25.910Z,102587.00
2023-05-27T07:59:52.693Z,102585.38
2023-05-27T08:02:19.596Z,102581.59
2023-05-27T08:04:46.689Z,102602.81
2023-05-27T08:07:13.536Z,102598.88
2023-05-27T08:09:40.322Z,102583.22
2023-05-27T08:12:07.738Z,102553.28
2023-05-27T08:14:35.612Z,102581.84
2023-05-27T08:17:02.653Z,102563.66
2023-05-27T08:19:29.772Z,102582.75
2023-05-27T08:21:58.536Z,102569.44
2023-05-27T08:24:25.657Z,102566.22
2023-05-27T08:26:52.732Z,102554.22
2023-05-27T08:29:20.257Z,102576.00
2023-05-27T08:31:47.420Z,102563.97
2023-05-27T08:34:14.424Z,102540.75
2023-05-27T08:36:41.410Z,102561.19
2023-05-27T08:39:08.263Z,102543.59
2023-05-27T08:41:35.111Z,102568.03
2023-05-27T08:44:19.630Z,102559.38
2023-05-27T08:46:49.606Z,102541.34
2023-05-27T08:49:16.768Z,102520.31
2023-05-27T08:51:46.786Z,102543.81
2023-05-27T08:54:13.696Z,102535.59
2023-05-27T08:56:41.198Z,102541.66
2023-05-27T08:59:08.581Z,102558.56
2023-05-27T09:01:35.589Z,102540.28
2023-05-27T09:04:02.529Z,102547.53
2023-05-27T09:06:29.845Z,102556.81
2023-05-27T09:08:56.731Z,102553.06
2023-05-27T09:11:24.574Z,102550.88
2023-05-27T09:13:51.512Z,102532.38
2023-05-27T09:16:21.630Z,102550.25
2023-05-27T09:18:48.638Z,102556.91
2023-05-27T09:21:15.729Z,102546.44
2023-05-27T09:23:42.541Z,102551.38
2023-05-27T09:26:11.091Z,102542.38
2023-05-27T09:28:38.570Z,102539.66
2023-05-27T09:31:07.001Z,102537.50
2023-05-27T09:33:35.612Z,102545.16
2023-05-27T09:36:05.914Z,102542.44
2023-05-27T09:38:33.795Z,102531.28
2023-05-27T09:41:00.980Z,102521.97
2023-05-27T09:43:28.315Z,102522.47
2023-05-27T09:46:05.341Z,102539.19
2023-05-27T09:48:35.466Z,102545.44
2023-05-27T09:51:02.631Z,102532.22
2023-05-27T09:53:29.435Z,102519.91
2023-05-27T09:55:56.754Z,102534.28
2023-05-27T09:58:24.008Z,102529.03
2023-05-27T10:00:51.269Z,102540.38
2023-05-27T10:03:20.731Z,102542.25
2023-05-27T10:05:48.638Z,102532.44
2023-05-27T10:08:25.507Z,102527.19
2023-05-27T10:10:54.147Z,102533.78
2023-05-27T10:13:21.434Z,102529.38
2023-05-27T10:15:52.415Z,102540.41
2023-05-27T10:18:43.273Z,102547.28
2023-05-27T10:21:10.162Z,102533.31
2023-05-27T10:23:37.374Z,102528.47
2023-05-27T10:26:08.669Z,102529.94
2023-05-27T10:28:42.371Z,102538.81
2023-05-27T10:31:29.708Z,102548.09
2023-05-27T10:33:58.588Z,102534.13
2023-05-27T10:36:33.060Z,102540.72
2023-05-27T10:39:05.560Z,102541.41
2023-05-27T10:41:42.701Z,102538.47
2023-05-27T10:44:09.797Z,102525.28
2023-05-27T10:46:41.791Z,102529.75
2023-05-27T10:49:16.064Z,102538.56
2023-05-27T10:51:49.058Z,102534.66
2023-05-27T10:54:29.170Z,102532.63
2023-05-27T10:56:57.024Z,102528.13
2023-05-27T10:59:24.107Z,102527.72
2023-05-27T11:01:54.862Z,102524.66
2023-05-27T11:04:22.966Z,102515.66
2023-05-27T11:07:04.354Z,102526.22
2023-05-27T11:09:52.201Z,102532.69
2023-05-27T11:12:20.013Z,102522.66
2023-05-27T11:14:57.475Z,102528.06
2023-05-27T11:17:24.836Z,102531.84
2023-05-27T11:19:51.750Z,102525.31
2023-05-27T11:22:19.020Z,102518.56
2023-05-27T11:25:07.160Z,102501.75
2023-05-27T11:27:37.948Z,102509.88
2023-05-27T11:30:12.585Z,102506.94
2023-05-27T11:32:42.240Z,102500.84
2023-05-27T11:35:18.976Z,102513.66
2023-05-27T11:37:53.352Z,102495.47
2023-05-27T11:40:20.271Z,102501.59
2023-05-27T11:42:47.615Z,102487.84
2023-05-27T11:45:21.679Z,102498.69
2023-05-27T11:47:52.482Z,102467.66
2023-05-27T11:50:20.538Z,102498.13
2023-05-27T11:52:54.615Z,102491.63
2023-05-27T11:55:21.787Z,102490.16
2023-05-27T11:57:48.602Z,102482.72
2023-05-27T12:00:15.653Z,102494.66
2023-05-27T12:02:43.417Z,102473.97
2023-05-27T12:05:15.224Z,102494.94
2023-05-27T12:07:50.597Z,102485.88
2023-05-27T12:10:17.513Z,102475.00
2023-05-27T12:12:45.441Z,102484.13
2023-05-27T12:15:12.224Z,102483.41
2023-05-27T12:17:39.069Z,102481.41
2023-05-27T12:20:07.430Z,102469.09
2023-05-27T12:22:34.360Z,102454.38
2023-05-27T12:25:01.171Z,102464.06
2023-05-27T12:27:28.002Z,102477.81
2023-05-27T12:29:55.026Z,102430.34
2023-05-27T12:32:21.858Z,102467.72
2023-05-27T12:34:48.680Z,102434.84
2023-05-27T12:37:15.647Z,102456.31
2023-05-27T12:39:42.417Z,102462.25
2023-05-27T12:42:09.641Z,102433.66
2023-05-27T12:44:36.419Z,102455.47
2023-05-27T12:47:03.286Z,102448.88
2023-05-27T12:49:30.155Z,102445.69
2023-05-27T12:51:57.000Z,102408.84
2023-05-27T12:54:23.782Z,102445.47
2023-05-27T12:56:50.708Z,102441.41
2023-05-27T12:59:17.695Z,102432.94
2023-05-27T13:01:44.555Z,102427.91
2023-05-27T13:04:12.083Z,102438.56
2023-05-27T13:06:38.958Z,102419.41
2023-05-27T13:09:06.297Z,102408.00
2023-05-27T13:11:34.935Z,102431.94
2023-05-27T13:14:01.714Z,102418.22
2023-05-27T13:16:28.581Z,102411.34
2023-05-27T13:18:55.437Z,102429.31
2023-05-27T13:21:22.143Z,102385.47
2023-05-27T13:23:49.070Z,102397.25
2023-05-27T13:26:16.136Z,102397.16
2023-05-27T13:28:43.110Z,102410.50
2023-05-27T13:31:10.066Z,102406.13
2023-05-27T13:33:36.889Z,102399.19
2023-05-27T13:36:04.242Z,102402.00
2023-05-27T13:38:31.031Z,102392.22
2023-05-27T13:40:57.950Z,102389.88
2023-05-27T13:43:24.778Z,102370.22
2023-05-27T13:45:51.952Z,102385.84
2023-05-27T13:48:19.479Z,102395.72
2023-05-27T13:50:46.305Z,102381.13
2023-05-27T13:53:13.079Z,102393.41
2023-05-27T13:55:39.871Z,102392.97
2023-05-27T13:58:06.982Z,102392.50
2023-05-27T14:00:33.850Z,102373.31
2023-05-27T14:03:00.844Z,102375.47
2023-05-27T14:05:30.965Z,102381.34
2023-05-27T14:07:58.100Z,102374.34
2023-05-27T14:10:24.879Z,102374.84
2023-05-27T14:12:51.671Z,102376.00
2023-05-27T14:15:19.129Z,102381.09
2023-05-27T14:17:46.949Z,102378.03
2023-05-27T14:20:13.954Z,102372.16
2023-05-27T14:22:41.054Z,102373.78
2023-05-27T14:25:08.254Z,102375.94
2023-05-27T14:27:35.001Z,102368.81
2023-05-27T14:30:01.820Z,102373.56
2023-05-27T14:32:28.969Z,102370.16
2023-05-27T14:34:57.112Z,102361.69
2023-05-27T14:37:24.053Z,102351.50
2023-05-27T14:39:53.937Z,102359.63
2023-05-27T14:42:21.379Z,102366.91
2023-05-27T14:44:48.292Z,102363.91
2023-05-27T14:47:15.241Z,102349.66
2023-05-27T14:49:42.144Z,102368.00
2023-05-27T14:52:08.935Z,102359.44
2023-05-27T14:54:35.822Z,102333.53
2023-05-27T14:57:02.569Z,102339.47
2023-05-27T14:59:29.343Z,102337.09
2023-05-27T15:01:56.126Z,102336.41
2023-05-27T15:04:22.902Z,102339.88
2023-05-27T15:06:49.711Z,102330.97
2023-05-27T15:09:16.784Z,102339.50
2023-05-27T15:11:43.523Z,102333.53
2023-05-27T15:14:10.623Z,102328.66
2023-05-27T15:16:37.524Z,102359.41
2023-05-27T15:19:04.340Z,102337.63
2023-05-27T15:21:31.090Z,102326.28
2023-05-27T15:23:58.080Z,102337.69
2023-05-27T15:26:24.873Z,102348.03
2023-05-27T15:28:51.666Z,102349.16
2023-05-27T15:31:18.488Z,102341.50
2023-05-27T15:33:45.329Z,102336.78
2023-05-27T15:36:12.854Z,102323.66
2023-05-27T15:38:39.815Z,102340.94
2023-05-27T15:41:06.921Z,102324.41
2023-05-27T15:43:33.765Z,102350.38
2023-05-27T15:46:04.214Z,102346.56
2023-05-27T15:48:32.400Z,102334.81
2023-05-27T15:50:59.848Z,102334.19
2023-05-27T15:53:26.824Z,102317.69
2023-05-27T15:55:53.864Z,102332.91
2023-05-27T15:58:22.119Z,102335.41
2023-05-27T16:00:49.257Z,102338.75
2023-05-27T16:03:16.261Z,102326.47
2023-05-27T16:05:43.340Z,102338.75
2023-05-27T16:08:11.668Z,102326.09
2023-05-27T16:10:57.280Z,102338.75
2023-05-27T16:13:24.912Z,102334.78
2023-05-27T16:15:52.377Z,102328.47
2023-05-27T16:18:20.755Z,102328.88
2023-05-27T16:20:49.308Z,102322.34
2023-05-27T16:23:16.788Z,102336.28
2023-05-27T16:25:43.624Z,102321.53
2023-05-27T16:28:10.554Z,102330.75
2023-05-27T16:30:37.476Z,102309.56
2023-05-27T16:33:04.545Z,102306.38
2023-05-27T16:35:31.613Z,102314.25
2023-05-27T16:37:58.442Z,102321.28
2023-05-27T16:40:25.315Z,102313.97
2023-05-27T16:42:52.194Z,102301.41
2023-05-27T16:45:19.118Z,102285.53
2023-05-27T16:47:46.100Z,102319.94
2023-05-27T16:50:13.007Z,102317.16
2023-05-27T16:52:39.941Z,102322.25
2023-05-27T16:55:07.806Z,102301.75
2023-05-27T16:57:35.697Z,102305.44
2023-05-27T17:00:06.218Z,102305.16
2023-05-27T17:02:33.200Z,102299.53
2023-05-27T17:05:00.160Z,102306.00
2023-05-27T17:07:26.977Z,102308.34
2023-05-27T17:09:53.902Z,102303.41
2023-05-27T17:12:20.949Z,102303.31
2023-05-27T17:14:47.748Z,102310.19
2023-05-27T17:17:15.062Z,102301.53
2023-05-27T17:19:44.357Z,102289.59
2023-05-27T17:22:11.230Z,102300.81
2023-05-27T17:24:39.119Z,102299.97
2023-05-27T17:27:10.956Z,102302.25
2023-05-27T17:29:38.379Z,102298.91
2023-05-27T17:32:05.413Z,102293.25
2023-05-27T17:34:32.249Z,102301.59
2023-05-27T17:36:59.037Z,102301.91
2023-05-27T17:39:26.701Z,102298.47
2023-05-27T17:41:53.518Z,102264.25
2023-05-27T17:44:20.396Z,102294.31
2023-05-27T17:46:48.839Z,102281.41
2023-05-27T17:49:15.805Z,102271.41
2023-05-27T17:51:42.614Z,102283.13
2023-05-27T17:54:09.841Z,102289.78
2023-05-27T17:56:36.621Z,102286.72
2023-05-27T17:59:03.373Z,102254.88
2023-05-27T18:01:30.684Z,102275.75
2023-05-27T18:03:57.546Z,102272.81
2023-05-27T18:06:24.332Z,102280.75
2023-05-27T18:08:51.154Z,102277.28
2023-05-27T18:11:17.978Z,102284.66
2023-05-27T18:13:44.816Z,102272.94
2023-05-27T18:16:11.794Z,102279.03
2023-05-27T18:18:38.697Z,102268.22
2023-05-27T18:21:06.249Z,102269.56
2023-05-27T18:23:33.050Z,102273.94
2023-05-27T18:25:59.920Z,102272.22
2023-05-27T18:28:26.693Z,102255.69
2023-05-27T18:30:53.717Z,102264.03
2023-05-27T18:33:20.932Z,102269.88
2023-05-27T18:35:47.935Z,102268.09
2023-05-27T18:38:14.825Z,102247.63
2023-05-27T18:40:41.616Z,102268.00
2023-05-27T18:43:09.121Z,102270.78
2023-05-27T18:45:56.310Z,102282.19
2023-05-27T18:48:27.409Z,102272.66
2023-05-27T18:50:54.961Z,102286.56
2023-05-27T18:53:22.383Z,102265.47
2023-05-27T18:55:49.253Z,102284.63
2023-05-27T18:58:16.548Z,102289.97
2023-05-27T19:00:43.639Z,102277.44
2023-05-27T19:03:15.720Z,102272.25
2023-05-27T19:05:42.551Z,102276.53
2023-05-27T19:08:09.383Z,102279.97
2023-05-27T19:10:36.217Z,102268.72
2023-05-27T19:13:04.853Z,102279.69
2023-05-27T19:15:31.958Z,102269.59
2023-05-27T19:17:58.848Z,102277.47
2023-05-27T19:20:25.725Z,102277.19
2023-05-27T19:22:52.571Z,102278.56
2023-05-27T19:25:19.517Z,102270.00
2023-05-27T19:27:46.295Z,102271.19
2023-05-27T19:30:13.455Z,102285.56
2023-05-27T19:32:40.343Z,102270.53
2023-05-27T19:35:07.466Z,102264.69
2023-05-27T19:37:34.583Z,102273.00
2023-05-27T19:40:01.411Z,102279.38
2023-05-27T19:42:28.182Z,102270.09
2023-05-27T19:44:55.051Z,102268.22
2023-05-27T19:47:22.018Z,102268.63
2023-05-27T19:49:48.960Z,102283.50
2023-05-27T19:52:16.222Z,102272.81
2023-05-27T19:54:43.231Z,102278.47
2023-05-27T19:57:10.103Z,102268.91
2023-05-27T19:59:37.648Z,102284.41
2023-05-27T20:02:04.589Z,102278.22
2023-05-27T20:04:31.348Z,102281.81
2023-05-27T20:06:58.115Z,102274.63
2023-05-27T20:09:24.890Z,102248.31
2023-05-27T20:11:54.477Z,102284.06
2023-05-27T20:14:21.220Z,102269.91
2023-05-27T20:16:47.977Z,102277.31
2023-05-27T20:19:14.767Z,102274.78
2023-05-27T20:21:41.559Z,102256.41
2023-05-27T20:24:08.365Z,102270.16
2023-05-27T20:26:35.119Z,102251.00
2023-05-27T20:29:01.968Z,102241.88
2023-05-27T20:31:28.839Z,102242.81
2023-05-27T20:33:56.369Z,102253.28
2023-05-27T20:36:23.274Z,102236.41
2023-05-27T20:38:50.358Z,102261.75
2023-05-27T20:41:17.206Z,102244.44
2023-05-27T20:43:45.403Z,102241.09
2023-05-27T20:46:12.219Z,102252.28
2023-05-27T20:48:39.485Z,102250.91
2023-05-27T20:51:07.108Z,102234.41
2023-05-27T20:53:33.919Z,102249.25
2023-05-27T20:56:00.677Z,102266.06
2023-05-27T20:58:27.444Z,102243.47
2023-05-27T21:00:54.442Z,102261.19
2023-05-27T21:03:21.543Z,102247.97
2023-05-27T21:05:48.550Z,102255.88
2023-05-27T21:08:15.511Z,102240.78
2023-05-27T21:10:42.294Z,102219.06
2023-05-27T21:13:09.079Z,102254.59
2023-05-27T21:15:35.853Z,102246.50
2023-05-27T21:18:02.785Z,102242.38
2023-05-27T21:20:29.903Z,102245.09
2023-05-27T21:22:56.885Z,102247.06
2023-05-27T21:25:23.872Z,102254.41
2023-05-27T21:27:50.677Z,102242.00
2023-05-27T21:30:17.719Z,102263.19
2023-05-27T21:32:44.548Z,102246.13
2023-05-27T21:35:11.350Z,102244.56
2023-05-27T21:37:38.153Z,102263.19
2023-05-27T21:40:06.810Z,102256.31
2023-05-27T21:42:34.203Z,102223.63
2023-05-27T21:45:00.995Z,102260.66
2023-05-27T21:47:27.917Z,102237.16
2023-05-27T21:49:54.849Z,102253.47
2023-05-27T21:52:24.878Z,102235.13
2023-05-27T21:54:53.721Z,102205.75
2023-05-27T21:57:21.172Z,102236.16
2023-05-27T21:59:48.652Z,102243.97
2023-05-27T22:02:15.866Z,102249.38
2023-05-27T22:04:43.236Z,102254.88
2023-05-27T22:07:10.108Z,102240.88
2023-05-27T22:09:36.999Z,102245.56
2023-05-27T22:12:03.972Z,102239.91
2023-05-27T22:14:30.849Z,102220.03
2023-05-27T22:16:57.682Z,102252.06
2023-05-27T22:19:24.491Z,102189.75
2023-05-27T22:21:51.291Z,102238.53
2023-05-27T22:24:18.096Z,102251.31
2023-05-27T22:26:44.869Z,102237.59
2023-05-27T22:29:11.687Z,102218.75
2023-05-27T22:31:38.499Z,102238.34
2023-05-27T22:34:07.459Z,102242.22
2023-05-27T22:36:34.926Z,102234.50
2023-05-27T22:39:01.804Z,102224.41
2023-05-27T22:41:28.655Z,102230.41
2023-05-27T22:43:55.418Z,102233.19
2023-05-27T22:46:22.211Z,102220.66
2023-05-27T22:48:49.003Z,102223.38
2023-05-27T22:51:16.001Z,102244.72
2023-05-27T22:53:44.209Z,102220.72
2023-05-27T22:56:12.442Z,102242.31
2023-05-27T22:58:39.573Z,102231.78
2023-05-27T23:01:06.631Z,102215.47
2023-05-27T23:03:33.578Z,102246.97
2023-05-27T23:06:00.806Z,102228.56
2023-05-27T23:08:27.647Z,102212.38
2023-05-27T23:10:54.459Z,102229.16
2023-05-27T23:13:21.250Z,102229.22
2023-05-27T23:15:48.037Z,102214.97
2023-05-27T23:18:14.816Z,102216.47
2023-05-27T23:20:42.200Z,102207.41
2023-05-27T23:23:09.224Z,102200.78
2023-05-27T23:25:35.989Z,102196.31
2023-05-27T23:28:03.688Z,102192.84
2023-05-27T23:30:32.342Z,102182.97
2023-05-27T23:32:59.274Z,102184.63
2023-05-27T23:35:26.161Z,102167.00
2023-05-27T23:37:52.949Z,102204.03
2023-05-27T23:40:19.732Z,102167.66
2023-05-27T23:42:47.997Z,102183.81
2023-05-27T23:45:14.932Z,102194.22
2023-05-27T23:47:41.810Z,102182.06
2023-05-27T23:50:08.969Z,102192.38
2023-05-27T23:52:35.731Z,102192.66
2023-05-27T23:55:05.836Z,102169.28
2023-05-27T23:57:32.676Z,102193.78
